Time;durP1;ratioP1;P1;durP2;ratioP2;P2;SDS_P1;SDS_P2;PMS_P1;PMS_P2;Temp;Humidity;BMP_temperature;BMP_pressure;BME280_temperature;BME280_humidity;BME280_pressure;Samples;Min_cycle;Max_cycle;Signal;HPM_P1;HPM_P2
2023/10/01 00:00:46;;;;;;;13.10;4.75;;;15.50;32.60;;;;;;5068546;28;20403;-72
2023/10/01 00:03:14;;;;;;;12.20;4.28;;;15.50;32.30;;;;;;5066672;28;20483;-72
2023/10/01 00:05:40;;;;;;;12.83;4.70;;;15.50;32.20;;;;;;5068709;28;20400;-72
2023/10/01 00:08:08;;;;;;;12.20;4.47;;;15.50;33.20;;;;;;5068455;28;20514;-71
2023/10/01 00:10:34;;;;;;;13.05;4.00;;;15.50;33.80;;;;;;5068812;28;20411;-72
2023/10/01 00:12:59;;;;;;;12.30;4.30;;;15.50;33.80;;;;;;5066918;28;20414;-72
2023/10/01 00:15:26;;;;;;;13.68;4.25;;;15.50;34.50;;;;;;5073985;28;20496;-72
2023/10/01 00:17:53;;;;;;;10.20;4.13;;;15.50;34.90;;;;;;5068056;28;20428;-72
2023/10/01 00:20:24;;;;;;;11.20;4.07;;;15.50;35.10;;;;;;5067071;28;20952;-72
2023/10/01 00:22:57;;;;;;;10.88;3.92;;;15.50;35.00;;;;;;5067911;28;20418;-72
2023/10/01 00:25:23;;;;;;;12.98;4.32;;;15.40;35.00;;;;;;5068320;28;20431;-72
2023/10/01 00:27:50;;;;;;;11.75;4.45;;;15.50;35.00;;;;;;5066863;28;20917;-72
2023/10/01 00:30:16;;;;;;;12.68;4.90;;;15.40;35.10;;;;;;5068328;28;20404;-72
2023/10/01 00:32:42;;;;;;;10.63;4.40;;;15.40;35.40;;;;;;5066268;28;20881;-72
2023/10/01 00:35:10;;;;;;;16.20;4.50;;;15.40;35.30;;;;;;5066772;28;21556;-72
2023/10/01 00:37:37;;;;;;;12.23;5.10;;;15.40;36.00;;;;;;5067668;28;20524;-71
2023/10/01 00:40:08;;;;;;;12.82;4.88;;;15.40;36.00;;;;;;5068483;28;20526;-72
2023/10/01 00:42:37;;;;;;;12.48;5.03;;;15.40;35.80;;;;;;5067717;28;20419;-72
2023/10/01 00:45:07;;;;;;;10.65;4.85;;;15.40;36.00;;;;;;5068168;28;20404;-72
2023/10/01 00:47:35;;;;;;;13.07;5.57;;;15.40;37.40;;;;;;5066938;28;20420;-72
2023/10/01 00:50:01;;;;;;;10.43;5.15;;;15.40;37.30;;;;;;5067609;28;20910;-72
2023/10/01 00:52:28;;;;;;;9.80;5.03;;;15.40;37.70;;;;;;5067831;28;20465;-72
2023/10/01 00:54:55;;;;;;;12.98;5.22;;;15.40;37.80;;;;;;5067808;28;20407;-72
2023/10/01 00:57:23;;;;;;;14.07;5.20;;;15.40;37.90;;;;;;5061642;28;20421;-72
2023/10/01 00:59:50;;;;;;;11.38;5.25;;;15.40;38.30;;;;;;5062985;28;20491;-72
2023/10/01 01:02:16;;;;;;;13.13;5.78;;;15.40;38.30;;;;;;5067818;28;20494;-72
2023/10/01 01:05:00;;;;;;;12.55;6.10;;;15.40;38.90;;;;;;5067828;28;20495;-71
2023/10/01 01:07:25;;;;;;;16.23;6.03;;;15.40;39.30;;;;;;5068415;28;20441;-72
2023/10/01 01:09:51;;;;;;;12.07;5.63;;;15.40;39.00;;;;;;5067222;28;20411;-72
2023/10/01 01:12:17;;;;;;;15.27;6.20;;;15.30;38.80;;;;;;5067422;28;20410;-72
2023/10/01 01:14:44;;;;;;;14.07;6.72;;;15.40;39.20;;;;;;5067450;28;20839;-72
2023/10/01 01:17:11;;;;;;;14.13;5.97;;;15.40;38.90;;;;;;5066398;28;20473;-72
2023/10/01 01:19:36;;;;;;;13.63;6.82;;;15.40;39.40;;;;;;5066977;28;20435;-72
2023/10/01 01:22:02;;;;;;;13.65;6.20;;;15.40;39.80;;;;;;5067521;28;20474;-72
2023/10/01 01:24:29;;;;;;;12.47;6.73;;;15.40;39.40;;;;;;5067665;28;20404;-71
2023/10/01 01:27:00;;;;;;;12.95;6.28;;;15.40;39.60;;;;;;5068054;28;20403;-72
2023/10/01 01:29:33;;;;;;;16.52;7.10;;;15.30;39.90;;;;;;5066043;28;20408;-71
2023/10/01 01:34:54;;;;;;;13.13;6.30;;;15.40;40.30;;;;;;5046508;28;20412;-72
2023/10/01 01:37:30;;;;;;;13.45;6.38;;;15.40;41.00;;;;;;5065287;28;21031;-72
2023/10/01 01:39:57;;;;;;;13.60;6.78;;;15.40;41.20;;;;;;5067287;28;20404;-71
2023/10/01 01:42:24;;;;;;;14.70;7.00;;;15.40;41.30;;;;;;5083076;28;20527;-71
2023/10/01 01:47:38;;;;;;;15.25;7.32;;;15.40;41.70;;;;;;5066643;28;20854;-71
2023/10/01 01:50:21;;;;;;;14.38;6.82;;;15.40;42.10;;;;;;5067016;28;20404;-72
2023/10/01 01:52:47;;;;;;;15.65;7.68;;;15.40;42.60;;;;;;5056380;28;20793;-72
2023/10/01 01:55:23;;;;;;;14.60;7.43;;;15.40;42.90;;;;;;5066974;28;20893;-71
2023/10/01 01:58:06;;;;;;;17.73;7.03;;;15.40;43.20;;;;;;5065895;28;20466;-72
2023/10/01 02:00:34;;;;;;;13.82;7.70;;;15.30;43.00;;;;;;5064880;28;21280;-71
2023/10/01 02:03:10;;;;;;;14.32;7.25;;;15.30;42.30;;;;;;5067392;28;20404;-71
2023/10/01 02:05:36;;;;;;;16.35;7.50;;;15.30;42.80;;;;;;5049615;28;20419;-71
2023/10/01 02:08:06;;;;;;;12.77;7.35;;;15.30;43.20;;;;;;5065984;28;20404;-72
2023/10/01 02:10:44;;;;;;;15.25;7.60;;;15.30;43.20;;;;;;5067228;28;20412;-72
2023/10/01 02:13:16;;;;;;;17.97;7.97;;;15.30;43.40;;;;;;5066554;28;20475;-72
2023/10/01 02:15:45;;;;;;;17.42;7.78;;;15.30;43.60;;;;;;5067162;28;20408;-72
2023/10/01 02:18:16;;;;;;;15.17;8.10;;;15.30;43.40;;;;;;5066695;28;20431;-71
2023/10/01 02:20:52;;;;;;;15.77;7.60;;;15.30;43.50;;;;;;5065323;28;20412;-71
2023/10/01 02:23:25;;;;;;;15.02;8.20;;;15.30;43.60;;;;;;5064655;28;20962;-72
2023/10/01 02:25:52;;;;;;;17.45;8.38;;;15.30;43.70;;;;;;5069086;28;20408;-71
2023/10/01 02:28:18;;;;;;;15.88;8.60;;;15.30;44.00;;;;;;5060119;28;20809;-72
2023/10/01 02:30:44;;;;;;;14.30;8.00;;;15.30;44.10;;;;;;5068935;28;20408;-72
2023/10/01 02:33:17;;;;;;;16.13;8.65;;;15.30;44.20;;;;;;5058599;28;20399;-72
2023/10/01 02:35:48;;;;;;;17.87;8.33;;;15.30;44.20;;;;;;5069004;28;21203;-72
2023/10/01 02:41:02;;;;;;;18.20;8.75;;;15.30;44.30;;;;;;5068552;28;20408;-72
2023/10/01 02:43:33;;;;;;;14.45;8.32;;;15.30;44.80;;;;;;5070397;28;20399;-72
2023/10/01 02:46:13;;;;;;;19.93;9.07;;;15.30;45.10;;;;;;5068881;28;20469;-72
2023/10/01 02:48:40;;;;;;;15.45;8.43;;;15.30;45.20;;;;;;5069214;28;20478;-72
2023/10/01 02:51:15;;;;;;;15.15;8.50;;;15.30;45.50;;;;;;5062177;28;20419;-72
2023/10/01 02:59:24;;;;;;;15.95;8.60;;;15.20;45.30;;;;;;5063839;28;20490;-72
2023/10/01 03:01:49;;;;;;;17.70;9.10;;;15.20;45.50;;;;;;5069307;28;20988;-72
2023/10/01 03:04:16;;;;;;;17.30;9.23;;;15.20;45.70;;;;;;5070007;28;20456;-71
2023/10/01 03:06:55;;;;;;;18.70;9.43;;;15.20;45.40;;;;;;5085538;28;20922;-72
2023/10/01 03:09:22;;;;;;;19.80;9.43;;;15.20;45.50;;;;;;5069804;28;20404;-72
2023/10/01 03:14:35;;;;;;;16.67;9.15;;;15.20;45.00;;;;;;5069846;28;20423;-72
2023/10/01 03:17:07;;;;;;;20.13;10.30;;;15.20;44.80;;;;;;5068464;28;20408;-72
2023/10/01 03:19:34;;;;;;;16.70;9.40;;;15.10;43.90;;;;;;5069676;28;20937;-72
2023/10/01 03:24:33;;;;;;;17.23;9.95;;;15.10;43.80;;;;;;5069709;28;20404;-72
2023/10/01 03:27:13;;;;;;;16.35;9.65;;;15.10;44.00;;;;;;5069073;28;20459;-72
2023/10/01 03:29:42;;;;;;;16.70;9.75;;;15.10;43.90;;;;;;5069258;28;20410;-72
2023/10/01 03:34:53;;;;;;;14.43;9.80;;;15.20;43.90;;;;;;5068665;28;20407;-72
2023/10/01 03:37:20;;;;;;;15.82;9.57;;;15.10;43.90;;;;;;5068031;28;20937;-72
2023/10/01 03:39:46;;;;;;;18.67;10.23;;;15.20;43.90;;;;;;5069181;28;20406;-72
2023/10/01 03:42:13;;;;;;;16.02;10.18;;;15.20;44.20;;;;;;5069248;28;20392;-72
2023/10/01 03:47:24;;;;;;;16.90;9.80;;;15.10;44.30;;;;;;5060220;28;20453;-72
2023/10/01 03:49:54;;;;;;;17.83;9.65;;;15.20;44.60;;;;;;5067898;28;20501;-71
2023/10/01 03:52:28;;;;;;;18.88;9.88;;;15.20;44.50;;;;;;5069251;28;20404;-72
2023/10/01 03:57:23;;;;;;;16.02;10.18;;;15.20;44.10;;;;;;5069106;28;20423;-72
2023/10/01 03:59:52;;;;;;;18.30;10.00;;;15.20;44.60;;;;;;5068388;28;21015;-72
2023/10/01 04:02:46;;;;;;;19.33;9.98;;;15.20;44.40;;;;;;5069116;28;20488;-72
2023/10/01 04:05:21;;;;;;;17.65;10.18;;;15.20;44.30;;;;;;5057567;28;20418;-72
2023/10/01 04:07:48;;;;;;;17.40;9.75;;;15.20;44.00;;;;;;5068507;28;20414;-72
2023/10/01 04:12:54;;;;;;;14.57;9.20;;;15.20;43.50;;;;;;5066740;28;20404;-72
2023/10/01 04:15:27;;;;;;;17.55;10.30;;;15.10;43.10;;;;;;5067831;28;20412;-72
2023/10/01 04:20:38;;;;;;;15.23;9.77;;;15.20;43.30;;;;;;5066815;28;20416;-72
2023/10/01 04:23:07;;;;;;;13.82;9.07;;;15.20;42.90;;;;;;5067106;28;20405;-72
2023/10/01 04:25:36;;;;;;;15.43;9.73;;;15.10;43.10;;;;;;5068263;28;21341;-72
2023/10/01 04:28:05;;;;;;;16.40;9.60;;;15.10;43.60;;;;;;5068825;28;20457;-72
2023/10/01 04:30:34;;;;;;;16.42;10.52;;;15.10;43.70;;;;;;5067831;28;20404;-72
2023/10/01 04:33:18;;;;;;;18.23;9.93;;;15.10;43.60;;;;;;5081662;28;20400;-72
2023/10/01 04:35:51;;;;;;;17.60;10.23;;;15.20;43.30;;;;;;5065994;28;20820;-72
2023/10/01 04:38:26;;;;;;;16.77;10.32;;;15.10;43.70;;;;;;5068035;28;20429;-72
2023/10/01 04:40:52;;;;;;;17.02;10.32;;;15.20;43.70;;;;;;5068153;28;20434;-72
2023/10/01 04:43:20;;;;;;;17.10;9.70;;;15.10;43.70;;;;;;5067953;28;21345;-72
2023/10/01 04:45:47;;;;;;;15.50;9.60;;;15.10;43.10;;;;;;5068354;28;20400;-72
2023/10/01 04:48:16;;;;;;;17.13;9.87;;;15.10;43.20;;;;;;5067410;28;20446;-72
2023/10/01 04:50:46;;;;;;;16.23;10.15;;;15.10;43.50;;;;;;5067940;28;20432;-72
2023/10/01 04:53:18;;;;;;;16.52;9.90;;;15.10;43.50;;;;;;5066521;28;20408;-72
2023/10/01 04:55:44;;;;;;;19.63;10.55;;;15.10;43.40;;;;;;5066550;28;20865;-72
2023/10/01 04:58:14;;;;;;;20.33;10.50;;;15.10;43.20;;;;;;5067556;28;20522;-72
2023/10/01 05:00:46;;;;;;;16.20;10.40;;;15.10;43.70;;;;;;5068123;28;20829;-72
2023/10/01 05:03:15;;;;;;;15.10;9.52;;;15.10;43.70;;;;;;5058913;28;20438;-71
2023/10/01 05:05:44;;;;;;;17.80;9.82;;;15.10;43.30;;;;;;5066376;28;20439;-72
2023/10/01 05:08:12;;;;;;;17.20;9.73;;;15.10;43.30;;;;;;5068365;28;20474;-71
2023/10/01 05:10:51;;;;;;;15.57;10.07;;;15.10;43.40;;;;;;5067502;28;20400;-72
2023/10/01 05:13:20;;;;;;;18.25;9.77;;;15.10;43.00;;;;;;5065311;28;21394;-72
2023/10/01 05:15:49;;;;;;;17.60;9.65;;;15.10;42.80;;;;;;5064752;28;20901;-72
2023/10/01 05:18:19;;;;;;;16.27;9.77;;;15.10;42.70;;;;;;5066980;28;20428;-72
2023/10/01 05:20:48;;;;;;;15.40;10.07;;;15.10;42.90;;;;;;5067974;28;20545;-72
2023/10/01 05:23:15;;;;;;;16.60;9.95;;;15.10;43.20;;;;;;5067789;28;20422;-72
2023/10/01 05:25:45;;;;;;;14.60;9.13;;;15.10;43.40;;;;;;5067496;28;20985;-72
2023/10/01 05:28:23;;;;;;;16.85;9.48;;;15.10;43.70;;;;;;5067620;28;20522;-72
2023/10/01 05:30:57;;;;;;;14.40;9.10;;;15.10;42.80;;;;;;5056767;28;20884;-72
2023/10/01 05:33:24;;;;;;;13.27;9.27;;;15.10;42.90;;;;;;5065928;28;20418;-72
2023/10/01 05:35:54;;;;;;;15.23;9.27;;;15.10;43.40;;;;;;5066167;28;20411;-72
2023/10/01 05:38:21;;;;;;;16.38;9.73;;;15.10;43.60;;;;;;5067039;28;20431;-72
2023/10/01 05:40:52;;;;;;;18.50;9.55;;;15.10;44.10;;;;;;5067569;28;20407;-72
2023/10/01 05:43:18;;;;;;;20.67;9.70;;;15.10;44.60;;;;;;5067189;28;20403;-72
2023/10/01 05:45:50;;;;;;;14.68;9.23;;;15.10;44.60;;;;;;5066146;28;20406;-72
2023/10/01 05:48:19;;;;;;;17.23;9.68;;;15.10;46.60;;;;;;5066338;28;20913;-72
2023/10/01 05:50:49;;;;;;;17.98;9.88;;;15.00;48.10;;;;;;5065961;28;20817;-71
2023/10/01 05:53:18;;;;;;;16.15;8.75;;;15.00;49.40;;;;;;5067356;28;20403;-72
2023/10/01 05:55:44;;;;;;;18.17;9.30;;;15.00;49.30;;;;;;5066761;28;20992;-72
2023/10/01 05:58:13;;;;;;;19.08;10.50;;;15.00;49.90;;;;;;5065617;28;20446;-72
2023/10/01 06:00:56;;;;;;;18.20;10.73;;;15.00;51.00;;;;;;5051221;28;20805;-72
2023/10/01 06:03:23;;;;;;;19.63;12.05;;;15.00;52.80;;;;;;5069550;28;20415;-72
2023/10/01 06:05:58;;;;;;;18.85;11.30;;;15.00;54.50;;;;;;5069714;28;20486;-73
2023/10/01 06:08:44;;;;;;;22.05;12.90;;;15.00;55.30;;;;;;5061088;28;21298;-72
2023/10/01 06:11:15;;;;;;;24.88;13.07;;;14.90;56.20;;;;;;5070507;28;20408;-73
2023/10/01 06:13:49;;;;;;;22.93;12.90;;;14.90;57.20;;;;;;5071206;28;20739;-72
2023/10/01 06:16:24;;;;;;;20.63;12.55;;;14.90;57.90;;;;;;5069150;28;20404;-72
2023/10/01 06:18:52;;;;;;;22.05;13.13;;;14.90;59.00;;;;;;5070370;28;20430;-73
2023/10/01 06:21:22;;;;;;;23.63;13.88;;;14.80;59.00;;;;;;5053141;28;20438;-72
2023/10/01 06:23:51;;;;;;;24.02;13.45;;;14.80;59.90;;;;;;5070751;28;21281;-72
2023/10/01 06:26:22;;;;;;;22.92;12.82;;;14.80;60.90;;;;;;5070575;28;20422;-73
2023/10/01 06:28:48;;;;;;;24.92;13.40;;;14.80;61.40;;;;;;5086360;28;20411;-72
2023/10/01 06:31:20;;;;;;;22.80;13.53;;;14.70;61.60;;;;;;5071102;28;20765;-73
2023/10/01 06:33:53;;;;;;;22.45;13.38;;;14.80;62.70;;;;;;5070149;28;20909;-72
2023/10/01 06:36:23;;;;;;;24.30;13.75;;;14.70;63.40;;;;;;5069192;28;20407;-72
2023/10/01 06:38:50;;;;;;;24.48;13.88;;;14.80;63.80;;;;;;5070409;28;20419;-72
2023/10/01 06:41:19;;;;;;;22.80;12.70;;;14.70;64.60;;;;;;5068830;28;20913;-72
2023/10/01 06:43:49;;;;;;;22.23;13.00;;;14.70;64.70;;;;;;5067519;28;20403;-72
2023/10/01 06:46:22;;;;;;;20.95;12.32;;;14.70;64.90;;;;;;5070311;28;20408;-73
2023/10/01 06:48:49;;;;;;;23.23;12.95;;;14.70;65.90;;;;;;5070305;28;20452;-72
2023/10/01 06:51:19;;;;;;;22.05;12.65;;;14.70;65.90;;;;;;5069463;28;20407;-72
2023/10/01 06:53:47;;;;;;;24.30;12.60;;;14.80;65.80;;;;;;5059610;28;20417;-72
2023/10/01 06:56:21;;;;;;;18.15;12.10;;;14.80;66.30;;;;;;5070014;28;20407;-72
2023/10/01 06:59:12;;;;;;;21.67;12.25;;;14.80;66.70;;;;;;5070187;28;20435;-72
2023/10/01 07:01:50;;;;;;;18.33;12.20;;;14.80;67.00;;;;;;5069799;28;20443;-72
2023/10/01 07:04:24;;;;;;;21.87;12.37;;;14.90;67.20;;;;;;5069938;28;20411;-72
2023/10/01 07:06:50;;;;;;;19.98;11.68;;;14.90;67.80;;;;;;5085032;28;20415;-72
2023/10/01 07:09:32;;;;;;;20.88;11.65;;;14.90;67.40;;;;;;5069491;28;20767;-72
2023/10/01 07:12:00;;;;;;;21.63;11.52;;;15.00;67.50;;;;;;5069789;28;20399;-72
2023/10/01 07:14:43;;;;;;;19.77;11.20;;;15.00;67.60;;;;;;5069224;28;20411;-72
2023/10/01 07:17:15;;;;;;;18.45;11.75;;;15.00;67.90;;;;;;5069241;28;20486;-72
2023/10/01 07:19:42;;;;;;;19.55;10.80;;;15.10;67.80;;;;;;5069446;28;20402;-72
2023/10/01 07:22:15;;;;;;;21.13;11.40;;;15.10;67.70;;;;;;5068188;28;20419;-72
2023/10/01 07:24:41;;;;;;;18.08;10.82;;;15.10;66.20;;;;;;5069395;28;20426;-73
2023/10/01 07:27:11;;;;;;;17.85;10.80;;;15.10;66.50;;;;;;5068452;28;20407;-72
2023/10/01 07:29:42;;;;;;;18.00;10.98;;;15.10;66.90;;;;;;5068371;28;20411;-72
2023/10/01 07:32:13;;;;;;;20.67;10.80;;;15.20;66.60;;;;;;5068964;28;20404;-72
2023/10/01 07:34:39;;;;;;;20.75;11.35;;;15.20;66.10;;;;;;5069708;28;20493;-72
2023/10/01 07:37:07;;;;;;;19.20;10.63;;;15.20;66.00;;;;;;5069461;28;20497;-72
2023/10/01 07:39:37;;;;;;;20.00;10.45;;;15.20;66.40;;;;;;5069049;28;20914;-72
2023/10/01 07:42:05;;;;;;;17.65;10.35;;;15.20;66.20;;;;;;5069003;28;20468;-72
2023/10/01 07:44:36;;;;;;;16.92;9.68;;;15.30;66.00;;;;;;5068333;28;20482;-72
2023/10/01 07:47:03;;;;;;;21.38;10.82;;;15.30;66.10;;;;;;5062714;28;20407;-73
2023/10/01 07:49:47;;;;;;;17.42;10.00;;;15.30;65.80;;;;;;5062247;28;20772;-73
2023/10/01 07:52:19;;;;;;;20.15;10.48;;;15.40;65.30;;;;;;5063276;28;20422;-73
2023/10/01 07:54:48;;;;;;;19.45;10.32;;;15.50;66.30;;;;;;5066974;28;20404;-73
2023/10/01 07:57:18;;;;;;;17.23;9.43;;;15.60;66.60;;;;;;5066276;28;20445;-73
2023/10/01 07:59:46;;;;;;;16.40;9.77;;;15.70;66.40;;;;;;5056326;28;20404;-72
2023/10/01 08:07:17;;;;;;;19.10;10.00;;;15.80;64.90;;;;;;5067191;28;20427;-72
2023/10/01 08:09:51;;;;;;;18.10;9.60;;;15.90;64.00;;;;;;5058703;28;20407;-72
2023/10/01 08:12:19;;;;;;;18.55;10.25;;;15.90;63.60;;;;;;5067356;28;20457;-72
2023/10/01 08:15:15;;;;;;;16.92;9.70;;;15.90;63.60;;;;;;5066083;28;20404;-73
2023/10/01 08:17:34;;;;;;;18.73;9.80;;;15.80;63.80;;;;;;5065096;28;20434;-72
2023/10/01 08:20:17;;;;;;;16.97;9.53;;;15.90;62.70;;;;;;5067041;28;20510;-72
2023/10/01 08:23:12;;;;;;;18.55;9.75;;;15.90;62.70;;;;;;5064897;28;20818;-72
2023/10/01 08:25:42;;;;;;;20.60;10.30;;;15.90;62.20;;;;;;5066496;28;20414;-74
2023/10/01 08:28:29;;;;;;;19.52;9.80;;;15.90;62.50;;;;;;5066917;28;20457;-73
2023/10/01 08:31:43;;;;;;;18.45;9.27;;;15.90;63.30;;;;;;5066030;28;20412;-73
2023/10/01 08:33:51;;;;;;;17.48;9.50;;;16.00;64.10;;;;;;5067469;28;20412;-72
2023/10/01 08:36:24;;;;;;;17.73;9.15;;;16.00;64.40;;;;;;5057117;28;20413;-73
2023/10/01 08:39:20;;;;;;;20.08;9.13;;;16.00;63.90;;;;;;5064292;28;21603;-74
2023/10/01 08:41:50;;;;;;;16.17;8.88;;;16.10;63.50;;;;;;5065116;28;20408;-73
2023/10/01 08:44:20;;;;;;;18.00;8.95;;;16.10;63.40;;;;;;5065180;28;20423;-73
2023/10/01 08:46:47;;;;;;;17.25;8.85;;;16.10;63.70;;;;;;5065550;28;20766;-73
2023/10/01 08:49:23;;;;;;;18.17;9.25;;;16.10;63.40;;;;;;5059604;28;20434;-73
2023/10/01 08:51:52;;;;;;;19.63;9.40;;;16.10;63.30;;;;;;5061684;28;20967;-73
2023/10/01 08:54:24;;;;;;;16.10;8.65;;;16.10;63.00;;;;;;5067491;28;20406;-73
2023/10/01 08:56:52;;;;;;;17.45;9.25;;;16.10;62.70;;;;;;5067912;28;20437;-74
2023/10/01 08:59:25;;;;;;;17.73;8.20;;;16.10;62.70;;;;;;5066275;28;20432;-73
2023/10/01 09:01:59;;;;;;;17.95;8.55;;;16.10;63.40;;;;;;5057367;28;20494;-73
2023/10/01 09:04:44;;;;;;;19.77;8.63;;;16.20;63.70;;;;;;5065843;28;20495;-73
2023/10/01 09:07:19;;;;;;;16.57;8.60;;;16.20;63.20;;;;;;5067940;28;20555;-73
2023/10/01 09:10:06;;;;;;;16.38;8.32;;;16.20;62.20;;;;;;5065468;28;20434;-73
2023/10/01 09:12:35;;;;;;;15.52;8.25;;;16.20;62.50;;;;;;5066280;28;20408;-73
2023/10/01 09:15:05;;;;;;;14.90;7.90;;;16.30;63.50;;;;;;5067557;28;20407;-73
2023/10/01 09:17:40;;;;;;;18.73;8.60;;;16.30;62.70;;;;;;5066683;28;20411;-73
2023/10/01 09:20:09;;;;;;;18.75;9.05;;;16.40;62.80;;;;;;5067283;28;20407;-74
2023/10/01 09:25:25;;;;;;;13.75;7.75;;;16.60;61.20;;;;;;5066756;28;20413;-73
2023/10/01 09:27:59;;;;;;;17.13;8.20;;;16.70;61.40;;;;;;5066442;28;20395;-71
2023/10/01 09:30:31;;;;;;;18.25;8.20;;;16.80;60.90;;;;;;5066860;28;20399;-71
2023/10/01 09:33:04;;;;;;;16.80;8.18;;;16.90;59.70;;;;;;5067558;28;20404;-73
2023/10/01 09:35:42;;;;;;;16.17;8.30;;;16.90;58.30;;;;;;5069435;28;20439;-72
2023/10/01 09:38:13;;;;;;;16.45;8.07;;;17.00;56.30;;;;;;5071188;28;20420;-72
2023/10/01 09:40:44;;;;;;;14.90;7.90;;;17.10;56.00;;;;;;5070682;28;20412;-72
2023/10/01 09:43:18;;;;;;;15.20;8.07;;;17.20;56.30;;;;;;5071483;28;20414;-73
2023/10/01 09:45:48;;;;;;;16.88;8.77;;;17.30;52.10;;;;;;5069165;28;20418;-72
2023/10/01 09:48:29;;;;;;;18.20;8.20;;;17.30;51.20;;;;;;5069416;28;20410;-72
2023/10/01 09:51:08;;;;;;;14.88;8.00;;;17.40;50.90;;;;;;5061426;28;20473;-72
2023/10/01 09:54:01;;;;;;;18.30;8.13;;;17.40;50.20;;;;;;5068766;28;20523;-72
2023/10/01 09:56:27;;;;;;;15.60;8.00;;;17.50;51.90;;;;;;5057901;28;20932;-72
2023/10/01 09:59:01;;;;;;;18.52;8.38;;;17.60;50.90;;;;;;5070666;28;20423;-72
2023/10/01 10:01:27;;;;;;;17.05;7.97;;;17.70;50.30;;;;;;5069186;28;20477;-72
2023/10/01 10:03:57;;;;;;;17.67;8.63;;;17.90;50.50;;;;;;5068972;28;20808;-72
2023/10/01 10:06:25;;;;;;;16.23;7.97;;;18.10;50.10;;;;;;5070264;28;20420;-68
2023/10/01 10:09:03;;;;;;;15.65;7.60;;;18.40;49.60;;;;;;5069940;28;20399;-71
2023/10/01 10:11:37;;;;;;;16.80;7.05;;;18.60;47.20;;;;;;5068841;28;20407;-71
2023/10/01 10:14:26;;;;;;;15.97;7.83;;;19.00;40.70;;;;;;5070656;28;20412;-72
2023/10/01 10:16:56;;;;;;;16.58;7.20;;;19.70;42.30;;;;;;5063204;28;20465;-72
2023/10/01 10:19:23;;;;;;;18.17;7.73;;;20.20;26.70;;;;;;5067222;28;20431;-73
2023/10/01 10:24:30;;;;;;;15.15;6.82;;;21.10;6.80;;;;;;5070635;28;20478;-72
2023/10/01 10:26:58;;;;;;;15.10;7.00;;;20.90;1.00;;;;;;5051807;28;20418;-72
2023/10/01 10:29:24;;;;;;;14.93;6.93;;;20.70;1.00;;;;;;5070315;28;20411;-73
2023/10/01 10:32:09;;;;;;;14.95;7.10;;;20.50;1.00;;;;;;5069946;28;20404;-72
2023/10/01 10:34:47;;;;;;;13.57;6.85;;;20.30;1.00;;;;;;5063081;28;20415;-72
2023/10/01 10:37:35;;;;;;;16.02;7.70;;;20.20;1.00;;;;;;5065780;28;21098;-72
2023/10/01 10:40:22;;;;;;;16.92;7.32;;;20.10;4.90;;;;;;5070637;28;20420;-73
2023/10/01 10:42:57;;;;;;;15.13;6.90;;;20.00;6.70;;;;;;5062303;28;20461;-72
2023/10/01 10:45:29;;;;;;;14.93;6.53;;;20.00;9.60;;;;;;5069165;28;20462;-72
2023/10/01 10:48:02;;;;;;;17.37;7.23;;;20.00;12.70;;;;;;5069211;28;20396;-72
2023/10/01 10:50:50;;;;;;;14.63;7.32;;;20.20;12.70;;;;;;5070158;28;20404;-73
2023/10/01 10:53:19;;;;;;;16.35;7.10;;;20.20;10.00;;;;;;5069301;28;20407;-72
2023/10/01 10:56:00;;;;;;;13.00;6.70;;;20.30;13.90;;;;;;5063652;28;20444;-73
2023/10/01 10:58:31;;;;;;;16.35;6.97;;;20.90;18.60;;;;;;5066727;28;20428;-73
2023/10/01 11:01:15;;;;;;;16.25;7.20;;;21.70;12.90;;;;;;5068148;28;20528;-73
2023/10/01 11:03:54;;;;;;;16.83;6.95;;;22.20;1.00;;;;;;5068255;28;20960;-72
2023/10/01 11:06:24;;;;;;;18.20;7.07;;;22.50;1.00;;;;;;5069712;28;20404;-72
2023/10/01 11:08:52;;;;;;;17.10;7.05;;;22.60;1.00;;;;;;5066779;28;20419;-72
2023/10/01 11:11:41;;;;;;;16.20;6.85;;;22.40;1.00;;;;;;5067351;28;20920;-73
2023/10/01 11:14:16;;;;;;;17.13;7.80;;;22.20;1.00;;;;;;5069321;28;20961;-73
2023/10/01 11:16:46;;;;;;;15.30;6.97;;;22.00;1.00;;;;;;5051514;28;20462;-72
2023/10/01 11:19:14;;;;;;;14.93;7.05;;;21.80;1.00;;;;;;5069256;28;20462;-72
2023/10/01 11:21:55;;;;;;;15.95;6.43;;;21.60;1.00;;;;;;5069672;28;20408;-72
2023/10/01 11:24:29;;;;;;;15.30;6.95;;;21.50;1.00;;;;;;5069910;28;20419;-72
2023/10/01 11:27:43;;;;;;;15.97;7.30;;;21.50;1.00;;;;;;5071192;28;20399;-72
2023/10/01 11:30:13;;;;;;;16.55;7.40;;;21.40;1.00;;;;;;5065708;28;20408;-72
2023/10/01 11:32:57;;;;;;;16.92;7.22;;;21.50;1.00;;;;;;5069385;28;20482;-72
2023/10/01 11:35:32;;;;;;;15.65;6.80;;;21.40;1.00;;;;;;5068892;28;20404;-72
2023/10/01 11:38:13;;;;;;;15.93;7.05;;;21.50;1.00;;;;;;5068958;28;20428;-73
2023/10/01 11:43:32;;;;;;;17.20;6.63;;;21.60;1.00;;;;;;5067621;28;20513;-72
2023/10/01 11:46:20;;;;;;;15.05;6.80;;;21.80;1.00;;;;;;5069357;28;20404;-72
2023/10/01 11:48:56;;;;;;;17.15;6.90;;;22.00;1.00;;;;;;5068097;28;20416;-72
2023/10/01 11:51:30;;;;;;;13.90;6.47;;;22.20;1.00;;;;;;5068757;28;20404;-73
2023/10/01 11:54:09;;;;;;;13.55;6.15;;;22.20;1.00;;;;;;5068933;28;20404;-73
2023/10/01 11:56:37;;;;;;;15.25;6.32;;;22.20;1.00;;;;;;5067747;28;20411;-73
2023/10/01 11:59:05;;;;;;;13.52;6.22;;;22.20;1.00;;;;;;5068001;28;20428;-73
2023/10/01 12:01:38;;;;;;;13.98;6.45;;;22.10;1.00;;;;;;5068220;28;20465;-72
2023/10/01 12:04:06;;;;;;;18.05;7.53;;;21.90;1.00;;;;;;5068647;28;20396;-72
2023/10/01 12:06:34;;;;;;;15.50;6.80;;;21.80;1.00;;;;;;5068409;28;20399;-72
2023/10/01 12:09:00;;;;;;;14.75;6.82;;;21.70;1.00;;;;;;5068267;28;20404;-72
2023/10/01 12:11:29;;;;;;;13.75;6.45;;;21.60;1.00;;;;;;5068190;28;20450;-72
2023/10/01 12:14:08;;;;;;;16.52;6.63;;;21.50;1.00;;;;;;5068293;28;20410;-72
2023/10/01 12:16:35;;;;;;;14.48;7.10;;;21.50;1.00;;;;;;5067188;28;20495;-72
2023/10/01 12:21:48;;;;;;;18.03;7.00;;;21.40;1.00;;;;;;5067229;28;20439;-72
2023/10/01 12:24:15;;;;;;;13.50;6.32;;;21.50;1.00;;;;;;5068063;28;20454;-72
2023/10/01 12:26:43;;;;;;;13.18;6.60;;;21.50;1.00;;;;;;5055313;28;20413;-72
2023/10/01 12:29:13;;;;;;;14.37;6.93;;;21.60;1.00;;;;;;5065494;28;20913;-72
2023/10/01 12:31:44;;;;;;;15.85;6.63;;;21.90;1.00;;;;;;5067947;28;20482;-72
2023/10/01 12:34:10;;;;;;;13.57;6.45;;;22.30;1.00;;;;;;5067620;28;20542;-73
2023/10/01 12:36:45;;;;;;;15.82;7.15;;;22.60;1.00;;;;;;5066293;28;20482;-73
2023/10/01 12:44:27;;;;;;;13.50;6.72;;;24.40;99.90;;;;;;5067820;28;20427;-73
2023/10/01 12:47:15;;;;;;;14.68;6.70;;;24.60;99.90;;;;;;5067273;28;20592;-73
2023/10/01 12:49:42;;;;;;;13.85;6.70;;;24.40;99.90;;;;;;5063134;28;20411;-73
2023/10/01 12:52:14;;;;;;;15.02;6.88;;;24.30;99.90;;;;;;5067871;28;20407;-73
2023/10/01 12:54:41;;;;;;;16.27;7.43;;;24.20;99.90;;;;;;5067245;28;20415;-73
2023/10/01 12:59:41;;;;;;;12.63;6.45;;;24.00;99.90;;;;;;5063686;28;20445;-73
2023/10/01 13:07:48;;;;;;;14.43;6.97;;;23.30;99.90;;;;;;5067159;28;20494;-73
2023/10/01 13:10:16;;;;;;;17.98;8.02;;;23.10;99.90;;;;;;5066632;28;20412;-73
2023/10/01 13:12:59;;;;;;;15.47;6.80;;;22.90;99.90;;;;;;5067254;28;20788;-73
2023/10/01 13:15:36;;;;;;;13.23;6.75;;;22.80;99.90;;;;;;5067406;28;20488;-73
2023/10/01 13:18:11;;;;;;;15.85;7.22;;;22.70;99.90;;;;;;5056433;28;20820;-72
2023/10/01 13:23:28;;;;;;;15.23;7.30;;;22.60;99.90;;;;;;5067579;28;20430;-73
2023/10/01 13:26:06;;;;;;;13.75;6.85;;;22.40;99.90;;;;;;5067674;28;20423;-72
2023/10/01 13:28:50;;;;;;;14.52;7.13;;;22.30;99.90;;;;;;5066107;28;20940;-73
2023/10/01 13:34:11;;;;;;;15.13;7.33;;;22.10;99.90;;;;;;5067344;28;20416;-73
2023/10/01 14:09:47;;;;;;;15.10;7.50;;;22.60;99.90;;;;;;5067294;28;20403;-73
2023/10/01 14:12:14;;;;;;;15.27;6.93;;;22.50;99.90;;;;;;5065984;28;20747;-72
2023/10/01 14:14:43;;;;;;;14.03;7.07;;;22.40;99.90;;;;;;5067153;28;20400;-72
2023/10/01 14:17:13;;;;;;;15.23;7.60;;;22.40;99.90;;;;;;5066833;28;20412;-72
2023/10/01 14:19:41;;;;;;;16.48;7.43;;;22.40;99.90;;;;;;5082190;28;20478;-74
2023/10/01 14:22:19;;;;;;;15.80;7.20;;;22.20;99.90;;;;;;5065773;28;20464;-73
2023/10/01 14:24:45;;;;;;;17.75;7.80;;;22.10;99.90;;;;;;5067174;28;20805;-73
2023/10/01 14:27:24;;;;;;;16.83;7.75;;;22.10;99.90;;;;;;5070769;28;20984;-74
2023/10/01 14:32:38;;;;;;;16.60;7.57;;;22.00;99.90;;;;;;5067662;28;20779;-73
2023/10/01 14:35:17;;;;;;;16.97;8.43;;;22.00;99.90;;;;;;5069934;28;20430;-74
2023/10/01 14:37:55;;;;;;;18.48;8.60;;;21.90;99.90;;;;;;5065621;28;20856;-74
2023/10/01 14:40:25;;;;;;;16.20;7.75;;;21.90;99.90;;;;;;5070126;28;20400;-74
2023/10/01 14:43:00;;;;;;;15.47;7.43;;;21.90;99.90;;;;;;5069054;28;20513;-74